createdAt,value
2022-08-04T00:00:53.658Z,36.87
2022-08-04T00:01:53.762Z,36.77
2022-08-04T00:02:53.663Z,36.67
2022-08-04T00:03:55.631Z,36.47
2022-08-04T00:04:53.663Z,36.47
2022-08-04T00:05:53.698Z,36.47
2022-08-04T00:06:53.675Z,36.57
2022-08-04T00:07:53.671Z,36.38
2022-08-04T00:08:55.653Z,36.67
2022-08-04T00:09:53.669Z,36.47
2022-08-04T00:10:53.670Z,36.18
2022-08-04T00:11:53.733Z,36.87
2022-08-04T00:12:53.671Z,36.47
2022-08-04T00:14:02.468Z,36.57
2022-08-04T00:14:53.675Z,36.47
2022-08-04T00:15:53.676Z,36.57
2022-08-04T00:16:53.675Z,36.77
2022-08-04T00:17:53.678Z,36.38
2022-08-04T00:18:53.678Z,36.57
2022-08-04T00:19:53.681Z,36.47
2022-08-04T00:20:53.680Z,36.87
2022-08-04T00:21:53.683Z,36.96
2022-08-04T00:22:53.691Z,36.96
2022-08-04T00:24:11.382Z,36.38
2022-08-04T00:24:53.686Z,36.38
2022-08-04T00:25:53.688Z,36.28
2022-08-04T00:26:53.689Z,36.47
2022-08-04T00:27:53.689Z,36.67
2022-08-04T00:28:53.690Z,36.67
2022-08-04T00:29:53.692Z,36.67
2022-08-04T00:30:53.694Z,36.77
2022-08-04T00:31:57.364Z,36.96
2022-08-04T00:32:53.696Z,36.77
2022-08-04T00:33:53.695Z,36.57
2022-08-04T00:34:53.696Z,36.77
2022-08-04T00:35:53.699Z,36.87
2022-08-04T00:36:53.698Z,36.96
2022-08-04T00:37:53.701Z,36.87
2022-08-04T00:38:53.737Z,36.77
2022-08-04T00:39:53.702Z,37.54
2022-08-04T00:40:53.704Z,36.96
2022-08-04T00:41:57.157Z,36.67
2022-08-04T00:42:58.997Z,36.67
2022-08-04T00:43:53.707Z,36.96
2022-08-04T00:44:53.707Z,37.06
2022-08-04T00:46:15.358Z,36.87
2022-08-04T00:46:53.709Z,37.06
2022-08-04T00:47:53.710Z,36.96
2022-08-04T00:48:53.710Z,36.96
2022-08-04T00:49:53.713Z,37.16
2022-08-04T00:50:53.714Z,37.16
2022-08-04T00:52:32.120Z,37.16
2022-08-04T00:52:53.715Z,37.06
2022-08-04T00:53:53.717Z,37.54
2022-08-04T00:54:53.718Z,37.35
2022-08-04T00:55:53.721Z,37.45
2022-08-04T00:56:53.718Z,37.16
2022-08-04T00:57:53.721Z,37.45
2022-08-04T00:58:53.723Z,37.35
2022-08-04T00:59:53.728Z,37.26
2022-08-04T01:00:53.723Z,37.35
2022-08-04T01:01:53.818Z,37.26
2022-08-04T01:02:53.726Z,37.26
2022-08-04T01:03:53.729Z,37.26
2022-08-04T01:04:53.727Z,37.14
2022-08-04T01:05:53.731Z,37.26
2022-08-04T01:06:56.519Z,37.16
2022-08-04T01:07:53.733Z,36.96
2022-08-04T01:08:53.754Z,37.16
2022-08-04T01:09:53.735Z,37.16
2022-08-04T01:10:53.735Z,37.16
2022-08-04T01:11:57.165Z,37.35
2022-08-04T01:12:53.737Z,37.26
2022-08-04T01:13:53.738Z,37.16
2022-08-04T01:14:53.739Z,37.16
2022-08-04T01:16:00.308Z,37.26
2022-08-04T01:16:53.741Z,37.35
2022-08-04T01:17:53.744Z,37.26
2022-08-04T01:18:53.744Z,37.54
2022-08-04T01:19:53.745Z,37.54
2022-08-04T01:20:53.745Z,37.35
2022-08-04T01:21:53.746Z,37.45
2022-08-04T01:22:53.747Z,37.45
2022-08-04T01:23:53.750Z,37.35
2022-08-04T01:24:53.750Z,37.43
2022-08-04T01:25:53.751Z,37.26
2022-08-04T01:26:57.985Z,37.26
2022-08-04T01:27:53.755Z,37.26
2022-08-04T01:28:53.754Z,37.16
2022-08-04T01:29:55.679Z,37.54
2022-08-04T01:30:53.756Z,37.54
2022-08-04T01:31:53.762Z,37.54
2022-08-04T01:32:53.758Z,37.54
2022-08-04T01:34:03.897Z,37.54
2022-08-04T01:34:53.761Z,37.35
2022-08-04T01:35:53.763Z,37.45
2022-08-04T01:36:53.796Z,37.54
2022-08-04T01:37:53.766Z,37.64
2022-08-04T01:38:53.816Z,37.45
2022-08-04T01:39:53.767Z,37.64
2022-08-04T01:40:53.773Z,37.74
2022-08-04T01:41:58.176Z,37.35
2022-08-04T01:42:53.772Z,37.64
2022-08-04T01:43:53.772Z,37.64
2022-08-04T01:44:53.769Z,37.45
2022-08-04T01:45:53.774Z,37.74
2022-08-04T01:46:53.773Z,37.52
2022-08-04T01:47:53.777Z,37.74
2022-08-04T01:48:53.775Z,37.45
2022-08-04T01:49:53.776Z,37.35
2022-08-04T01:50:53.779Z,37.26
2022-08-04T01:51:53.781Z,37.45
2022-08-04T01:52:53.778Z,37.64
2022-08-04T01:53:53.784Z,37.45
2022-08-04T01:54:53.782Z,37.35
2022-08-04T01:55:55.519Z,37.35
2022-08-04T01:56:53.783Z,37.35
2022-08-04T01:57:53.885Z,37.74
2022-08-04T01:58:53.786Z,37.35
2022-08-04T01:59:53.810Z,37.84
2022-08-04T02:00:56.475Z,38.03
2022-08-04T02:01:53.898Z,37.84
2022-08-04T02:02:53.864Z,37.93
2022-08-04T02:04:19.947Z,37.54
2022-08-04T02:04:53.797Z,37.74
2022-08-04T02:06:02.495Z,37.35
2022-08-04T02:06:53.795Z,37.54
2022-08-04T02:07:53.798Z,37.45
2022-08-04T02:08:53.795Z,37.54
2022-08-04T02:09:55.295Z,37.54
2022-08-04T02:10:53.799Z,37.54
2022-08-04T02:11:53.801Z,37.45
2022-08-04T02:12:53.801Z,37.64
2022-08-04T02:13:53.802Z,37.45
2022-08-04T02:14:53.803Z,37.84
2022-08-04T02:15:53.804Z,37.64
2022-08-04T02:16:53.808Z,37.74
2022-08-04T02:17:53.807Z,37.43
2022-08-04T02:18:53.806Z,37.74
2022-08-04T02:19:53.811Z,37.54
2022-08-04T02:20:53.808Z,37.35
2022-08-04T02:21:53.810Z,37.93
2022-08-04T02:22:53.811Z,37.74
2022-08-04T02:23:53.813Z,37.54
2022-08-04T02:24:53.812Z,38.03
2022-08-04T02:25:53.814Z,37.64
2022-08-04T02:26:53.814Z,37.54
2022-08-04T02:27:59.871Z,37.93
2022-08-04T02:28:53.817Z,37.84
2022-08-04T02:29:53.818Z,37.72
2022-08-04T02:30:53.820Z,38.03
2022-08-04T02:31:53.822Z,37.74
2022-08-04T02:32:53.820Z,38.01
2022-08-04T02:33:53.822Z,37.93
2022-08-04T02:34:53.824Z,37.72
2022-08-04T02:35:53.827Z,37.74
2022-08-04T02:36:53.826Z,37.74
2022-08-04T02:37:53.828Z,38.03
2022-08-04T02:38:53.867Z,37.93
2022-08-04T02:39:53.884Z,37.93
2022-08-04T02:40:53.829Z,37.64
2022-08-04T02:41:53.832Z,37.84
2022-08-04T02:42:53.832Z,37.93
2022-08-04T02:43:53.834Z,37.84
2022-08-04T02:44:53.834Z,37.64
2022-08-04T02:45:53.837Z,37.84
2022-08-04T02:46:53.836Z,37.93
2022-08-04T02:48:08.297Z,37.84
2022-08-04T02:48:53.837Z,38.42
2022-08-04T02:49:53.840Z,37.54
2022-08-04T02:50:53.841Z,37.92
2022-08-04T02:51:53.842Z,37.84
2022-08-04T02:52:53.842Z,37.74
2022-08-04T02:53:53.844Z,37.84
2022-08-04T02:54:53.844Z,37.84
2022-08-04T02:55:56.556Z,37.84
2022-08-04T02:56:53.847Z,37.84
2022-08-04T02:57:53.849Z,37.93
2022-08-04T02:58:53.848Z,38.01
2022-08-04T02:59:53.852Z,37.74
2022-08-04T03:00:53.886Z,37.82
2022-08-04T03:01:57.030Z,37.64
2022-08-04T03:02:53.852Z,38.03
2022-08-04T03:03:53.855Z,38.03
2022-08-04T03:04:53.854Z,38.32
2022-08-04T03:06:01.526Z,38.23
2022-08-04T03:06:53.858Z,38.11
2022-08-04T03:07:53.860Z,38.40
2022-08-04T03:08:53.859Z,38.03
2022-08-04T03:09:53.860Z,38.13
2022-08-04T03:10:53.862Z,38.23
2022-08-04T03:11:53.862Z,38.01
2022-08-04T03:12:53.863Z,38.21
2022-08-04T03:13:53.867Z,38.13
2022-08-04T03:14:53.866Z,38.13
2022-08-04T03:15:53.867Z,38.31
2022-08-04T03:16:53.868Z,38.32
2022-08-04T03:17:53.869Z,38.32
2022-08-04T03:18:53.870Z,38.31
2022-08-04T03:19:53.871Z,38.23
2022-08-04T03:20:53.871Z,38.31
2022-08-04T03:21:53.873Z,38.23
2022-08-04T03:23:11.924Z,38.13
2022-08-04T03:23:53.875Z,38.23
2022-08-04T03:24:53.875Z,38.23
2022-08-04T03:25:56.504Z,38.31
2022-08-04T03:26:53.877Z,38.21
2022-08-04T03:27:53.881Z,37.92
2022-08-04T03:28:53.879Z,38.31
2022-08-04T03:29:53.882Z,38.21
2022-08-04T03:30:53.883Z,38.23
2022-08-04T03:31:53.889Z,38.03
2022-08-04T03:32:53.883Z,38.21
2022-08-04T03:33:53.885Z,38.23
2022-08-04T03:34:53.886Z,37.84
2022-08-04T03:35:53.889Z,37.82
2022-08-04T03:36:53.889Z,37.93
2022-08-04T03:37:53.889Z,38.32
2022-08-04T03:38:57.051Z,37.93
2022-08-04T03:39:53.894Z,37.82
2022-08-04T03:40:53.892Z,37.92
2022-08-04T03:42:03.670Z,37.82
2022-08-04T03:42:53.895Z,38.31
2022-08-04T03:43:56.836Z,38.52
2022-08-04T03:44:53.898Z,38.60
2022-08-04T03:45:53.899Z,38.50
2022-08-04T03:46:53.898Z,38.21
2022-08-04T03:47:53.903Z,38.70
2022-08-04T03:48:53.900Z,38.23
2022-08-04T03:49:53.904Z,38.52
2022-08-04T03:50:53.902Z,38.52
2022-08-04T03:51:53.905Z,38.42
2022-08-04T03:52:53.904Z,38.31
2022-08-04T03:53:53.907Z,38.42
2022-08-04T03:54:53.906Z,38.21
2022-08-04T03:55:53.909Z,38.11
2022-08-04T03:56:53.908Z,38.31
2022-08-04T03:57:53.910Z,38.21
2022-08-04T03:58:53.913Z,38.23
2022-08-04T03:59:53.913Z,38.23
2022-08-04T04:00:53.913Z,38.23
2022-08-04T04:02:02.773Z,38.31
2022-08-04T04:02:54.007Z,38.11
2022-08-04T04:03:53.917Z,38.32
2022-08-04T04:04:55.036Z,38.42
2022-08-04T04:06:00.329Z,38.31
2022-08-04T04:06:54.422Z,38.21
2022-08-04T04:07:58.268Z,38.32
2022-08-04T04:08:53.925Z,38.31
2022-08-04T04:09:57.934Z,38.11
2022-08-04T04:10:53.924Z,38.11
2022-08-04T04:11:57.669Z,38.23
2022-08-04T04:12:53.925Z,38.21
2022-08-04T04:13:53.926Z,38.23
2022-08-04T04:14:53.929Z,38.52
2022-08-04T04:15:53.929Z,38.40
2022-08-04T04:16:53.929Z,38.40
2022-08-04T04:17:53.931Z,38.21
2022-08-04T04:18:53.932Z,38.52
2022-08-04T04:19:58.283Z,38.52
2022-08-04T04:20:53.935Z,38.32
2022-08-04T04:21:53.934Z,38.89
2022-08-04T04:22:53.936Z,38.70
2022-08-04T04:23:53.937Z,38.79
2022-08-04T04:24:53.938Z,38.79
2022-08-04T04:25:53.939Z,38.60
2022-08-04T04:26:53.942Z,38.62
2022-08-04T04:27:53.940Z,38.70
2022-08-04T04:28:53.943Z,38.79
2022-08-04T04:29:53.944Z,38.60
2022-08-04T04:30:53.945Z,38.79
2022-08-04T04:31:53.945Z,38.62
2022-08-04T04:32:53.951Z,38.60
2022-08-04T04:33:53.947Z,38.79
2022-08-04T04:34:53.948Z,38.79
2022-08-04T04:35:53.950Z,38.60
2022-08-04T04:36:53.951Z,38.70
2022-08-04T04:37:53.951Z,38.81
2022-08-04T04:38:53.998Z,38.70
2022-08-04T04:39:53.953Z,38.89
2022-08-04T04:40:53.957Z,38.89
2022-08-04T04:41:53.957Z,38.70
2022-08-04T04:42:53.957Z,38.70
2022-08-04T04:43:53.958Z,38.79
2022-08-04T04:44:53.959Z,38.79
2022-08-04T04:45:53.957Z,38.79
2022-08-04T04:46:53.961Z,38.79
2022-08-04T04:48:09.531Z,38.79
2022-08-04T04:48:53.962Z,38.89
2022-08-04T04:49:53.970Z,38.81
2022-08-04T04:50:53.968Z,38.70
2022-08-04T04:51:53.964Z,38.79
2022-08-04T04:52:53.966Z,38.79
2022-08-04T04:54:00.527Z,38.81
2022-08-04T04:54:53.970Z,38.89
2022-08-04T04:55:53.971Z,38.79
2022-08-04T04:56:53.970Z,38.79
2022-08-04T04:57:55.384Z,38.81
2022-08-04T04:58:53.973Z,38.89
2022-08-04T04:59:53.974Z,38.60
2022-08-04T05:00:53.974Z,38.70
2022-08-04T05:01:53.975Z,38.79
2022-08-04T05:02:56.500Z,38.79
2022-08-04T05:03:53.978Z,38.89
2022-08-04T05:04:53.978Z,38.89
2022-08-04T05:05:53.979Z,38.70
2022-08-04T05:06:54.604Z,38.98
2022-08-04T05:07:53.982Z,38.98
2022-08-04T05:08:54.626Z,39.00
2022-08-04T05:09:53.983Z,38.79
2022-08-04T05:10:53.986Z,39.47
2022-08-04T05:11:55.106Z,39.37
2022-08-04T05:14:31.884Z,38.89
2022-08-04T05:14:34.617Z,39.37
2022-08-04T05:14:53.988Z,39.00
2022-08-04T05:15:53.989Z,39.49
2022-08-04T05:16:53.992Z,39.28
2022-08-04T05:17:53.995Z,39.18
2022-08-04T05:18:53.993Z,39.18
2022-08-04T05:19:53.993Z,39.18
2022-08-04T05:20:53.995Z,39.08
2022-08-04T05:21:53.994Z,39.20
2022-08-04T05:22:53.997Z,39.18
2022-08-04T05:23:53.998Z,39.20
2022-08-04T05:24:53.999Z,39.20
2022-08-04T05:25:58.935Z,39.08
2022-08-04T05:26:54.001Z,39.08
2022-08-04T05:27:54.002Z,39.28
2022-08-04T05:28:54.005Z,38.98
2022-08-04T05:29:54.004Z,39.08
2022-08-04T05:30:54.006Z,39.08
2022-08-04T05:31:54.006Z,39.18
2022-08-04T05:32:54.062Z,38.98
2022-08-04T05:33:54.009Z,39.18
2022-08-04T05:34:54.009Z,39.18
2022-08-04T05:36:17.885Z,39.28
2022-08-04T05:36:54.011Z,39.08
2022-08-04T05:38:01.340Z,39.18
2022-08-04T05:38:54.049Z,39.28
2022-08-04T05:39:54.014Z,39.47
2022-08-04T05:40:54.015Z,39.28
2022-08-04T05:41:55.632Z,39.18
2022-08-04T05:42:54.017Z,39.28
2022-08-04T05:43:54.017Z,39.28
2022-08-04T05:44:54.020Z,39.47
2022-08-04T05:45:54.018Z,39.28
2022-08-04T05:46:54.782Z,39.28
2022-08-04T05:47:54.022Z,39.37
2022-08-04T05:48:54.022Z,39.29
2022-08-04T05:50:02.273Z,39.18
2022-08-04T05:50:57.693Z,39.47
2022-08-04T05:51:54.026Z,39.47
2022-08-04T05:52:54.026Z,39.47
2022-08-04T05:53:54.028Z,39.28
2022-08-04T05:54:54.030Z,39.28
2022-08-04T05:55:58.759Z,39.37
2022-08-04T05:56:54.030Z,39.49
2022-08-04T05:57:55.726Z,39.47
2022-08-04T05:58:54.033Z,39.47
2022-08-04T05:59:54.033Z,39.57
2022-08-04T06:00:54.054Z,39.37
2022-08-04T06:01:56.308Z,39.57
2022-08-04T06:02:54.036Z,39.37
2022-08-04T06:03:54.037Z,39.76
2022-08-04T06:04:54.044Z,39.86
2022-08-04T06:05:54.040Z,40.06
2022-08-04T06:06:54.042Z,39.67
2022-08-04T06:08:12.140Z,39.76
2022-08-04T06:08:54.042Z,39.76
2022-08-04T06:09:54.043Z,39.67
2022-08-04T06:10:54.046Z,39.76
2022-08-04T06:12:00.194Z,39.86
2022-08-04T06:12:54.048Z,39.86
2022-08-04T06:13:54.047Z,39.47
2022-08-04T06:14:54.048Z,39.86
2022-08-04T06:15:54.052Z,39.59
2022-08-04T06:16:54.065Z,39.76
2022-08-04T06:18:34.031Z,39.57
2022-08-04T06:19:58.986Z,39.47
2022-08-04T06:20:00.446Z,40.15
2022-08-04T06:20:54.060Z,39.86
2022-08-04T06:21:54.054Z,40.15
2022-08-04T06:22:54.061Z,40.06
2022-08-04T06:24:02.354Z,40.25
2022-08-04T06:24:54.059Z,39.96
2022-08-04T06:25:54.060Z,39.96
2022-08-04T06:26:54.061Z,40.06
2022-08-04T06:27:54.061Z,40.15
2022-08-04T06:28:54.063Z,40.06
2022-08-04T06:29:54.065Z,40.15
2022-08-04T06:30:54.066Z,40.06
2022-08-04T06:32:30.487Z,40.34
2022-08-04T06:32:54.067Z,40.15
2022-08-04T06:33:55.236Z,40.06
2022-08-04T06:34:54.070Z,40.15
2022-08-04T06:35:54.071Z,40.06
2022-08-04T06:36:54.073Z,39.96
2022-08-04T06:37:57.763Z,39.76
2022-08-04T06:38:59.189Z,39.96
2022-08-04T06:39:54.073Z,39.76
2022-08-04T06:40:54.078Z,39.86
2022-08-04T06:42:01.920Z,39.98
2022-08-04T06:42:54.077Z,39.96
2022-08-04T06:43:54.089Z,40.64
2022-08-04T06:44:54.081Z,40.15
2022-08-04T06:45:54.079Z,40.06
2022-08-04T06:46:54.081Z,40.64
2022-08-04T06:47:54.083Z,39.96
2022-08-04T06:48:54.086Z,40.44
2022-08-04T06:51:26.165Z,40.25
2022-08-04T06:51:27.572Z,40.54
2022-08-04T06:51:54.087Z,40.34
2022-08-04T06:52:54.089Z,40.44
2022-08-04T06:53:54.088Z,40.34
2022-08-04T06:54:54.100Z,40.64
2022-08-04T06:55:54.092Z,40.44
2022-08-04T06:56:54.092Z,40.44
2022-08-04T06:57:54.093Z,40.44
2022-08-04T06:58:54.094Z,40.54
2022-08-04T06:59:54.093Z,40.47
2022-08-04T07:00:54.096Z,40.34
2022-08-04T07:01:54.208Z,40.34
2022-08-04T07:02:54.101Z,40.44
2022-08-04T07:03:54.100Z,40.64
2022-08-04T07:04:54.101Z,40.44
2022-08-04T07:05:54.100Z,40.34
2022-08-04T07:06:54.103Z,40.34
2022-08-04T07:07:58.275Z,40.34
2022-08-04T07:08:54.103Z,40.44
2022-08-04T07:09:54.104Z,40.44
2022-08-04T07:10:54.106Z,40.34
2022-08-04T07:11:54.107Z,40.34
2022-08-04T07:12:54.110Z,40.25
2022-08-04T07:13:54.109Z,40.64
2022-08-04T07:14:54.111Z,40.34
2022-08-04T07:15:54.110Z,40.27
2022-08-04T07:16:54.115Z,40.44
2022-08-04T07:17:54.113Z,40.25
2022-08-04T07:18:54.126Z,40.44
2022-08-04T07:19:54.114Z,40.44
2022-08-04T07:20:54.116Z,40.34
2022-08-04T07:22:16.441Z,40.44
2022-08-04T07:22:54.119Z,40.54
2022-08-04T07:23:54.119Z,40.25
2022-08-04T07:24:54.122Z,40.15
2022-08-04T07:26:00.705Z,40.25
2022-08-04T07:26:54.124Z,40.34
2022-08-04T07:27:54.124Z,40.34
2022-08-04T07:28:54.125Z,40.34
2022-08-04T07:29:54.124Z,40.37
2022-08-04T07:30:54.144Z,40.34
2022-08-04T07:31:54.126Z,40.44
2022-08-04T07:32:54.128Z,40.34
2022-08-04T07:34:16.884Z,40.64
2022-08-04T07:34:54.131Z,40.54
2022-08-04T07:36:09.948Z,40.34
2022-08-04T07:36:55.322Z,40.44
2022-08-04T07:37:54.137Z,40.47
2022-08-04T07:38:54.194Z,40.54
2022-08-04T07:39:54.181Z,40.44
2022-08-04T07:40:54.141Z,40.34
2022-08-04T07:41:54.139Z,40.27
2022-08-04T07:42:54.141Z,40.27
2022-08-04T07:43:54.141Z,40.25
2022-08-04T07:44:54.142Z,40.64
2022-08-04T07:45:54.142Z,40.44
2022-08-04T07:46:54.143Z,40.15
2022-08-04T07:48:04.708Z,40.54
2022-08-04T07:48:54.145Z,40.27
2022-08-04T07:49:56.937Z,40.66
2022-08-04T07:50:54.147Z,40.64
2022-08-04T07:51:54.149Z,40.44
2022-08-04T07:53:15.360Z,40.54
2022-08-04T07:53:56.391Z,40.34
2022-08-04T07:54:54.154Z,40.15
2022-08-04T07:55:54.153Z,40.44
2022-08-04T07:56:54.154Z,40.44
2022-08-04T07:57:54.155Z,40.44
2022-08-04T07:58:54.159Z,40.54
2022-08-04T07:59:54.157Z,40.54
2022-08-04T08:00:54.157Z,40.64
2022-08-04T08:01:54.160Z,40.64
2022-08-04T08:02:54.164Z,40.73
2022-08-04T08:03:54.305Z,40.75
2022-08-04T08:04:54.364Z,40.56
2022-08-04T08:06:16.519Z,40.54
2022-08-04T08:06:54.165Z,40.34
2022-08-04T08:07:54.977Z,40.56
2022-08-04T08:08:54.167Z,40.54
2022-08-04T08:09:54.167Z,40.75
2022-08-04T08:10:54.169Z,40.56
2022-08-04T08:12:37.143Z,40.66
2022-08-04T08:12:54.177Z,40.64
2022-08-04T08:13:54.172Z,40.66
2022-08-04T08:14:54.189Z,40.54
2022-08-04T08:15:54.176Z,40.44
2022-08-04T08:16:54.177Z,40.25
2022-08-04T08:17:57.710Z,40.47
2022-08-04T08:18:54.179Z,40.66
2022-08-04T08:19:54.179Z,40.66
2022-08-04T08:20:54.183Z,40.83
2022-08-04T08:21:59.282Z,40.37
2022-08-04T08:22:54.183Z,40.44
2022-08-04T08:23:54.188Z,40.47
2022-08-04T08:24:54.183Z,40.27
2022-08-04T08:25:54.186Z,40.37
2022-08-04T08:26:54.187Z,40.64
2022-08-04T08:27:56.125Z,40.15
2022-08-04T08:28:54.192Z,40.15
2022-08-04T08:29:54.189Z,40.66
2022-08-04T08:30:54.190Z,40.47
2022-08-04T08:31:55.941Z,40.44
2022-08-04T08:32:54.192Z,40.66
2022-08-04T08:33:54.197Z,40.73
2022-08-04T08:34:54.195Z,40.56
2022-08-04T08:35:54.940Z,40.73
2022-08-04T08:36:54.197Z,40.37
2022-08-04T08:37:54.199Z,40.64
2022-08-04T08:38:54.235Z,40.54
2022-08-04T08:39:54.203Z,40.56
2022-08-04T08:40:54.201Z,40.47
2022-08-04T08:41:54.203Z,40.56
2022-08-04T08:42:54.204Z,40.56
2022-08-04T08:44:04.375Z,40.66
2022-08-04T08:44:57.799Z,40.37
2022-08-04T08:45:54.208Z,40.56
2022-08-04T08:46:54.207Z,40.54
2022-08-04T08:48:05.078Z,40.75
2022-08-04T08:48:54.210Z,40.56
2022-08-04T08:50:03.032Z,40.56
2022-08-04T08:50:54.213Z,40.44
2022-08-04T08:51:54.214Z,40.56
2022-08-04T08:53:00.970Z,40.37
2022-08-04T08:53:54.217Z,40.85
2022-08-04T08:54:54.217Z,40.56
2022-08-04T08:55:54.218Z,40.37
2022-08-04T08:56:54.218Z,40.66
2022-08-04T08:58:00.010Z,40.56
2022-08-04T08:58:54.222Z,40.27
2022-08-04T08:59:54.223Z,40.56
2022-08-04T09:00:54.223Z,40.66
2022-08-04T09:01:54.268Z,40.66
2022-08-04T09:03:04.559Z,40.56
2022-08-04T09:03:54.228Z,40.66
2022-08-04T09:04:54.229Z,40.56
2022-08-04T09:05:54.230Z,40.17
2022-08-04T09:06:54.232Z,40.66
2022-08-04T09:07:54.234Z,40.47
2022-08-04T09:08:54.232Z,40.37
2022-08-04T09:09:54.236Z,40.37
2022-08-04T09:10:54.236Z,40.27
2022-08-04T09:11:54.238Z,40.47
2022-08-04T09:12:54.237Z,40.56
2022-08-04T09:13:54.238Z,40.37
2022-08-04T09:14:54.242Z,40.47
2022-08-04T09:15:54.559Z,40.47
2022-08-04T09:16:54.250Z,40.37
2022-08-04T09:17:54.243Z,40.47
2022-08-04T09:18:54.244Z,40.47
2022-08-04T09:19:54.251Z,40.47
2022-08-04T09:20:54.246Z,40.37
2022-08-04T09:21:54.249Z,40.27
2022-08-04T09:22:54.247Z,40.47
2022-08-04T09:23:54.251Z,40.44
2022-08-04T09:24:54.251Z,40.56
2022-08-04T09:25:54.253Z,40.56
2022-08-04T09:27:00.050Z,40.75
2022-08-04T09:27:54.256Z,40.37
2022-08-04T09:28:54.920Z,40.37
2022-08-04T09:29:54.260Z,40.17
2022-08-04T09:30:54.258Z,40.08
2022-08-04T09:32:06.864Z,40.37
2022-08-04T09:32:54.259Z,40.17
2022-08-04T09:33:54.262Z,39.98
2022-08-04T09:35:03.220Z,39.88
2022-08-04T09:35:54.264Z,39.98
2022-08-04T09:36:54.264Z,39.69
2022-08-04T09:37:54.267Z,40.08
2022-08-04T09:38:54.299Z,40.08
2022-08-04T09:39:54.269Z,40.08
2022-08-04T09:40:57.159Z,40.08
2022-08-04T09:41:54.271Z,40.08
2022-08-04T09:42:54.272Z,40.08
2022-08-04T09:43:59.319Z,39.88
2022-08-04T09:45:01.606Z,40.08
2022-08-04T09:45:54.275Z,39.88
2022-08-04T09:46:54.278Z,39.78
2022-08-04T09:47:54.280Z,39.59
2022-08-04T09:48:54.278Z,39.49
2022-08-04T09:49:54.280Z,39.78
2022-08-04T09:50:54.281Z,39.98
2022-08-04T09:51:57.597Z,40.17
2022-08-04T09:52:54.284Z,40.17
2022-08-04T09:53:54.286Z,39.88
2022-08-04T09:54:54.286Z,39.88
2022-08-04T09:55:56.398Z,39.98
2022-08-04T09:56:54.288Z,39.69
2022-08-04T09:57:54.290Z,39.59
2022-08-04T09:58:54.290Z,39.39
2022-08-04T09:59:54.293Z,39.49
2022-08-04T10:00:54.292Z,39.10
2022-08-04T10:01:58.845Z,39.49
2022-08-04T10:02:54.323Z,39.10
2022-08-04T10:03:54.296Z,39.49
2022-08-04T10:04:54.298Z,39.88
2022-08-04T10:05:54.299Z,39.49
2022-08-04T10:06:54.299Z,39.29
2022-08-04T10:08:15.043Z,39.00
2022-08-04T10:08:57.198Z,39.10
2022-08-04T10:09:54.305Z,38.81
2022-08-04T10:10:54.305Z,38.71
2022-08-04T10:11:56.463Z,38.52
2022-08-04T10:12:54.306Z,38.23
2022-08-04T10:13:54.308Z,38.13
2022-08-04T10:14:54.308Z,37.93
2022-08-04T10:15:54.311Z,37.74
2022-08-04T10:16:54.311Z,37.84
2022-08-04T10:17:54.315Z,37.45
2022-08-04T10:18:54.314Z,37.84
2022-08-04T10:19:54.317Z,37.74
2022-08-04T10:20:58.260Z,37.64
2022-08-04T10:21:59.654Z,37.35
2022-08-04T10:23:10.450Z,37.54
2022-08-04T10:23:56.076Z,37.64
2022-08-04T10:24:54.320Z,37.64
2022-08-04T10:26:06.936Z,37.64
2022-08-04T10:26:57.485Z,37.66
2022-08-04T10:27:54.326Z,37.64
2022-08-04T10:28:54.326Z,37.35
2022-08-04T10:29:54.329Z,37.35
2022-08-04T10:30:54.329Z,37.74
2022-08-04T10:31:54.332Z,37.54
2022-08-04T10:32:54.329Z,37.84
2022-08-04T10:33:54.333Z,37.45
2022-08-04T10:34:54.334Z,37.74
2022-08-04T10:35:54.335Z,37.64
2022-08-04T10:36:54.336Z,37.46
2022-08-04T10:38:01.007Z,37.54
2022-08-04T10:38:54.426Z,37.35
2022-08-04T10:39:54.396Z,37.54
2022-08-04T10:40:54.340Z,37.85
2022-08-04T10:41:54.343Z,37.85
2022-08-04T10:42:54.344Z,37.93
2022-08-04T10:43:54.345Z,37.37
2022-08-04T10:44:57.653Z,37.54
2022-08-04T10:45:57.783Z,37.35
2022-08-04T10:46:54.349Z,37.54
2022-08-04T10:47:54.351Z,37.64
2022-08-04T10:48:54.349Z,37.54
2022-08-04T10:49:54.351Z,37.54
2022-08-04T10:50:57.252Z,37.56
2022-08-04T10:51:58.572Z,37.16
2022-08-04T10:52:54.356Z,37.45
2022-08-04T10:53:54.358Z,37.35
2022-08-04T10:54:54.359Z,36.96
2022-08-04T10:56:06.874Z,37.18
2022-08-04T10:56:56.892Z,37.37
2022-08-04T10:57:54.363Z,37.37
2022-08-04T10:58:54.364Z,37.18
2022-08-04T11:00:00.702Z,37.46
2022-08-04T11:00:54.366Z,37.06
2022-08-04T11:02:02.498Z,37.18
2022-08-04T11:02:54.436Z,36.96
2022-08-04T11:03:54.371Z,37.08
2022-08-04T11:04:54.370Z,36.77
2022-08-04T11:05:54.373Z,36.96
2022-08-04T11:06:54.373Z,36.69
2022-08-04T11:07:54.376Z,36.96
2022-08-04T11:08:54.376Z,36.77
2022-08-04T11:09:54.378Z,36.79
2022-08-04T11:10:54.380Z,36.57
2022-08-04T11:12:01.406Z,36.49
2022-08-04T11:12:54.379Z,36.87
2022-08-04T11:13:54.383Z,36.77
2022-08-04T11:14:54.384Z,36.57
2022-08-04T11:15:54.387Z,36.59
2022-08-04T11:16:54.386Z,36.30
2022-08-04T11:17:54.387Z,36.67
2022-08-04T11:18:54.391Z,36.47
2022-08-04T11:20:03.432Z,36.67
2022-08-04T11:20:54.396Z,36.79
2022-08-04T11:21:54.403Z,36.57
2022-08-04T11:22:54.395Z,36.77
2022-08-04T11:23:54.397Z,36.20
2022-08-04T11:24:54.396Z,36.59
2022-08-04T11:25:54.397Z,36.08
2022-08-04T11:26:54.399Z,36.49
2022-08-04T11:27:54.403Z,36.10
2022-08-04T11:29:04.128Z,36.08
2022-08-04T11:29:54.402Z,35.99
2022-08-04T11:30:54.405Z,36.30
2022-08-04T11:31:54.406Z,36.10
2022-08-04T11:32:54.405Z,35.81
2022-08-04T11:33:54.410Z,35.81
2022-08-04T11:34:54.411Z,35.89
2022-08-04T11:35:54.412Z,35.99
2022-08-04T11:36:54.413Z,35.91
2022-08-04T11:37:54.422Z,36.00
2022-08-04T11:38:54.494Z,35.80
2022-08-04T11:39:54.418Z,35.81
2022-08-04T11:41:02.737Z,35.81
2022-08-04T11:41:54.420Z,35.91
2022-08-04T11:42:54.419Z,35.91
2022-08-04T11:44:02.701Z,35.91
2022-08-04T11:44:54.421Z,35.81
2022-08-04T11:45:54.423Z,35.80
2022-08-04T11:46:54.426Z,35.99
2022-08-04T11:47:54.429Z,35.91
2022-08-04T11:48:54.425Z,35.89
2022-08-04T11:49:56.980Z,35.71
2022-08-04T11:50:54.429Z,35.99
2022-08-04T11:51:54.432Z,36.08
2022-08-04T11:52:54.437Z,35.91
2022-08-04T11:53:54.435Z,35.89
2022-08-04T11:54:54.592Z,35.99
2022-08-04T11:56:07.891Z,35.99
2022-08-04T11:56:54.436Z,36.08
2022-08-04T11:57:54.563Z,35.99
2022-08-04T11:58:54.440Z,35.81
2022-08-04T11:59:54.441Z,36.30
2022-08-04T12:00:54.441Z,35.89
2022-08-04T12:01:54.488Z,35.52
2022-08-04T12:02:54.444Z,36.30
2022-08-04T12:04:00.452Z,36.49
2022-08-04T12:04:54.446Z,36.10
2022-08-04T12:05:54.448Z,35.42
2022-08-04T12:07:15.104Z,35.61
2022-08-04T12:07:54.453Z,35.33
2022-08-04T12:08:54.452Z,35.52
2022-08-04T12:09:54.455Z,35.42
2022-08-04T12:10:54.462Z,35.33
2022-08-04T12:11:54.458Z,35.31
2022-08-04T12:12:54.457Z,35.03
2022-08-04T12:13:58.733Z,35.23
2022-08-04T12:14:54.460Z,35.03
2022-08-04T12:15:54.465Z,35.23
2022-08-04T12:16:54.463Z,35.13
2022-08-04T12:17:54.473Z,35.52
2022-08-04T12:18:54.465Z,35.13
2022-08-04T12:20:03.800Z,35.33
2022-08-04T12:20:54.467Z,34.84
2022-08-04T12:21:56.817Z,35.23
2022-08-04T12:22:54.472Z,35.23
2022-08-04T12:24:00.477Z,35.23
2022-08-04T12:24:54.473Z,35.03
2022-08-04T12:25:54.478Z,35.42
2022-08-04T12:26:54.475Z,35.23
2022-08-04T12:27:54.477Z,35.23
2022-08-04T12:29:09.464Z,35.03
2022-08-04T12:30:59.876Z,34.94
2022-08-04T12:31:01.161Z,35.23
2022-08-04T12:31:54.483Z,34.94
2022-08-04T12:32:54.481Z,35.03
2022-08-04T12:34:04.362Z,34.74
2022-08-04T12:34:54.486Z,34.92
2022-08-04T12:36:03.022Z,34.94
2022-08-04T12:36:54.489Z,35.03
2022-08-04T12:37:54.490Z,35.03
2022-08-04T12:38:54.530Z,35.03
2022-08-04T12:40:29.235Z,35.02
2022-08-04T12:40:54.493Z,35.13
2022-08-04T12:41:54.493Z,34.84
2022-08-04T12:42:56.202Z,35.13
2022-08-04T12:43:54.496Z,34.84
2022-08-04T12:44:54.498Z,34.94
2022-08-04T12:45:54.500Z,34.94
2022-08-04T12:46:54.502Z,35.13
2022-08-04T12:47:54.503Z,35.03
2022-08-04T12:48:54.505Z,34.92
2022-08-04T12:50:00.557Z,34.84
2022-08-04T12:50:54.507Z,35.03
2022-08-04T12:52:06.237Z,34.94
2022-08-04T12:53:03.538Z,35.03